Terminal Aerodrome Forecast
Issued by NWS Sterling, VA

Current Version | Previous Version | Text Only | Print | Product List | Glossary Off
Versions: 1 2 3 4 5 6 7 8 9 10 11 12 13

754
FTUS41 KLWX 182333
TAFMRB
TAF
KMRB 182333Z 1900/1924 25006KT P6SM SCT120 OVC250
     FM191300 29008KT P6SM BKN080
     FM191500 30011G22KT P6SM SCT250
     FM192300 30009KT P6SM FEW250=

USA.gov is the U.S. government's official web portal to all federal, state and local government web resources and services.